Time;durP1;ratioP1;P1;durP2;ratioP2;P2;SDS_P1;SDS_P2;PMS_P1;PMS_P2;Temp;Humidity;BMP_temperature;BMP_pressure;BME280_temperature;BME280_humidity;BME280_pressure;Samples;Min_cycle;Max_cycle;Signal;HPM_P1;HPM_P2
2022/05/18 00:01:41;;;;;;;3.50;2.10;;;21.20;99.90;;;;;;5033658;28;20790;-78
2022/05/18 00:04:07;;;;;;;3.33;2.10;;;21.20;99.90;;;;;;5033950;28;20893;-77
2022/05/18 00:06:33;;;;;;;3.40;2.00;;;21.20;99.90;;;;;;5034003;28;20806;-77
2022/05/18 00:08:59;;;;;;;3.93;2.20;;;21.20;99.90;;;;;;5034506;28;20212;-78
2022/05/18 00:11:25;;;;;;;3.27;2.00;;;21.10;99.90;;;;;;5034016;28;20427;-78
2022/05/18 00:13:53;;;;;;;3.63;2.27;;;21.00;99.90;;;;;;5034932;28;20415;-78
2022/05/18 00:16:21;;;;;;;3.43;2.20;;;21.00;99.90;;;;;;5035229;28;20812;-78
2022/05/18 00:18:47;;;;;;;4.80;2.60;;;21.00;99.90;;;;;;5036472;28;20419;-78
2022/05/18 00:21:14;;;;;;;3.40;2.20;;;20.90;99.90;;;;;;5036879;28;20794;-78
2022/05/18 00:23:39;;;;;;;3.00;1.70;;;20.90;99.90;;;;;;5036372;28;20817;-78
2022/05/18 00:26:06;;;;;;;4.13;2.10;;;20.90;99.90;;;;;;5036163;28;20454;-78
2022/05/18 00:28:33;;;;;;;4.30;3.90;;;20.90;99.90;;;;;;5036791;28;20255;-78
2022/05/18 00:30:59;;;;;;;3.83;2.23;;;20.80;99.90;;;;;;5036620;28;20423;-78
2022/05/18 00:33:27;;;;;;;3.67;2.27;;;20.80;99.90;;;;;;5036544;28;20425;-77
2022/05/18 00:35:53;;;;;;;3.73;2.37;;;20.70;99.90;;;;;;5036735;28;20458;-78
2022/05/18 00:38:20;;;;;;;3.40;2.27;;;20.70;99.90;;;;;;5035774;28;20438;-77
2022/05/18 00:40:48;;;;;;;3.60;2.47;;;20.70;99.90;;;;;;5036211;28;20411;-78
2022/05/18 00:43:20;;;;;;;4.13;2.40;;;20.80;99.90;;;;;;5036401;28;20791;-78
2022/05/18 00:45:46;;;;;;;3.30;2.03;;;20.80;99.90;;;;;;5036987;28;20420;-78
2022/05/18 00:48:12;;;;;;;3.03;2.20;;;20.70;99.90;;;;;;5036306;28;20492;-78
2022/05/18 00:50:41;;;;;;;6.40;2.50;;;20.70;99.90;;;;;;5036007;28;20815;-77
2022/05/18 00:53:25;;;;;;;5.73;2.20;;;20.60;99.90;;;;;;5036147;28;20212;-78
2022/05/18 00:55:56;;;;;;;3.40;2.20;;;20.60;99.90;;;;;;5035857;28;20482;-78
2022/05/18 00:58:21;;;;;;;3.53;2.37;;;20.50;99.90;;;;;;5036072;28;20439;-78
2022/05/18 01:00:50;;;;;;;7.33;2.37;;;20.50;99.90;;;;;;5035743;28;20450;-78
2022/05/18 01:03:21;;;;;;;5.33;2.60;;;20.40;99.90;;;;;;5035786;28;20188;-77
2022/05/18 01:05:52;;;;;;;4.10;2.50;;;20.40;99.90;;;;;;5038053;28;20949;-78
2022/05/18 01:08:29;;;;;;;3.17;2.30;;;20.40;99.90;;;;;;5038864;28;20474;-77
2022/05/18 01:10:55;;;;;;;3.83;2.20;;;20.40;99.90;;;;;;5038459;28;20781;-78
2022/05/18 01:13:21;;;;;;;3.53;2.37;;;20.30;99.90;;;;;;5038470;28;21067;-78
2022/05/18 01:15:46;;;;;;;3.60;2.27;;;20.30;99.90;;;;;;5037629;28;20711;-78
2022/05/18 01:18:13;;;;;;;4.33;2.53;;;20.30;99.90;;;;;;5038164;28;20207;-78
2022/05/18 01:20:44;;;;;;;3.47;2.57;;;20.20;99.90;;;;;;5038109;28;20638;-78
2022/05/18 01:23:38;;;;;;;5.53;2.50;;;20.20;99.90;;;;;;5037739;28;20437;-78
2022/05/18 01:26:16;;;;;;;4.50;2.57;;;20.10;99.90;;;;;;5037548;28;20423;-78
2022/05/18 01:28:57;;;;;;;4.80;2.63;;;20.10;99.90;;;;;;5037719;28;20556;-78
2022/05/18 01:31:47;;;;;;;3.77;2.80;;;20.10;99.90;;;;;;5037533;28;20422;-77
2022/05/18 01:34:15;;;;;;;4.47;2.57;;;20.10;99.90;;;;;;5037452;28;21000;-78
2022/05/18 01:36:41;;;;;;;4.10;2.73;;;20.00;99.90;;;;;;5037606;28;20515;-78
2022/05/18 01:39:15;;;;;;;3.77;2.30;;;20.00;99.90;;;;;;5038166;28;20465;-78
2022/05/18 01:42:01;;;;;;;3.03;2.10;;;20.00;99.90;;;;;;5037778;28;20667;-79
2022/05/18 01:44:28;;;;;;;5.47;2.90;;;20.00;99.90;;;;;;5037701;28;20514;-78
2022/05/18 01:46:53;;;;;;;3.73;2.77;;;19.90;99.90;;;;;;5036722;28;20435;-78
2022/05/18 01:49:19;;;;;;;3.83;2.33;;;19.90;99.90;;;;;;5036380;28;20423;-78
2022/05/18 01:51:48;;;;;;;5.53;2.27;;;19.90;99.90;;;;;;5035477;28;20185;-77
2022/05/18 01:54:15;;;;;;;3.53;2.60;;;19.90;99.90;;;;;;5034943;28;20183;-78
2022/05/18 01:56:41;;;;;;;3.27;2.47;;;19.80;99.90;;;;;;5035174;28;20434;-79
2022/05/18 01:59:07;;;;;;;4.30;3.03;;;19.80;99.90;;;;;;5051074;28;21015;-79
2022/05/18 02:01:37;;;;;;;4.00;2.77;;;19.80;99.90;;;;;;5046335;28;20522;-78
2022/05/18 02:04:03;;;;;;;5.03;3.00;;;19.70;99.90;;;;;;5049983;28;20792;-78
2022/05/18 02:06:32;;;;;;;4.00;2.53;;;19.70;99.90;;;;;;5034939;28;20446;-78
2022/05/18 02:08:58;;;;;;;3.87;2.47;;;19.60;99.90;;;;;;5038801;28;20533;-78
2022/05/18 02:11:24;;;;;;;3.37;2.57;;;19.60;99.90;;;;;;5049091;28;20445;-78
2022/05/18 02:13:51;;;;;;;5.33;2.10;;;19.60;99.90;;;;;;5048562;28;20439;-77
2022/05/18 02:16:18;;;;;;;3.80;2.30;;;19.50;99.90;;;;;;5044303;28;20683;-78
2022/05/18 02:18:44;;;;;;;3.27;2.53;;;19.50;99.90;;;;;;5038744;28;20415;-78
2022/05/18 02:21:11;;;;;;;3.60;2.60;;;19.50;99.90;;;;;;5044430;28;20980;-78
2022/05/18 02:23:38;;;;;;;4.53;2.70;;;19.50;99.90;;;;;;5038322;28;20267;-77
2022/05/18 02:26:16;;;;;;;4.43;2.70;;;19.40;99.90;;;;;;5045879;28;20439;-77
2022/05/18 02:28:43;;;;;;;3.83;2.53;;;19.40;99.90;;;;;;5047655;28;20522;-77
2022/05/18 02:31:09;;;;;;;5.20;3.57;;;19.40;99.90;;;;;;5054327;28;20575;-78
2022/05/18 02:33:35;;;;;;;6.83;2.70;;;19.40;99.90;;;;;;5049306;28;20744;-77
2022/05/18 02:36:02;;;;;;;9.63;4.23;;;19.40;99.90;;;;;;5045347;28;20466;-78
2022/05/18 02:38:28;;;;;;;4.90;3.00;;;19.40;99.90;;;;;;5046448;28;20542;-77
2022/05/18 02:40:58;;;;;;;4.80;2.77;;;19.30;99.90;;;;;;5050360;28;20445;-78
2022/05/18 02:43:24;;;;;;;3.90;2.60;;;19.40;99.90;;;;;;5043748;28;20185;-77
2022/05/18 02:45:50;;;;;;;4.30;2.63;;;19.40;99.90;;;;;;5043921;28;20496;-78
2022/05/18 02:48:16;;;;;;;3.70;2.63;;;19.30;99.90;;;;;;5048949;28;20470;-77
2022/05/18 02:50:44;;;;;;;3.70;2.67;;;19.20;99.90;;;;;;5050168;28;20186;-78
2022/05/18 02:53:10;;;;;;;3.40;2.57;;;19.20;99.90;;;;;;5055422;28;20755;-78
2022/05/18 02:58:20;;;;;;;3.80;2.70;;;19.20;99.90;;;;;;5058544;28;20250;-78
2022/05/18 03:00:46;;;;;;;4.10;3.17;;;19.10;99.90;;;;;;5056609;28;20418;-77
2022/05/18 03:03:12;;;;;;;4.90;3.07;;;19.00;99.90;;;;;;5057377;28;20771;-78
2022/05/18 03:05:38;;;;;;;4.20;2.77;;;19.00;99.90;;;;;;5056972;28;20424;-78
2022/05/18 03:08:06;;;;;;;5.17;3.10;;;19.10;99.90;;;;;;5056400;28;20199;-78
2022/05/18 03:10:31;;;;;;;5.00;3.43;;;19.00;99.90;;;;;;5056366;28;20230;-78
2022/05/18 03:12:57;;;;;;;4.30;3.03;;;18.90;99.90;;;;;;5057231;28;20414;-78
2022/05/18 03:15:23;;;;;;;7.20;4.57;;;18.90;99.90;;;;;;5056674;28;20210;-78
2022/05/18 03:17:49;;;;;;;5.10;3.30;;;18.80;99.90;;;;;;5057254;28;20483;-78
2022/05/18 03:25:43;;;;;;;4.10;2.97;;;18.80;99.90;;;;;;5058698;28;20491;-78
2022/05/18 03:28:09;;;;;;;4.67;3.10;;;18.80;99.90;;;;;;5056100;28;20446;-78
2022/05/18 03:30:35;;;;;;;3.97;3.10;;;18.70;99.90;;;;;;5056326;28;20230;-78
2022/05/18 03:33:00;;;;;;;3.93;2.90;;;18.60;99.90;;;;;;5057219;28;20180;-78
2022/05/18 03:35:26;;;;;;;5.13;3.07;;;18.60;99.90;;;;;;5056411;28;20777;-77
2022/05/18 03:37:52;;;;;;;4.13;2.53;;;18.60;99.90;;;;;;5057629;28;20195;-77
2022/05/18 03:40:18;;;;;;;4.80;2.60;;;18.60;99.90;;;;;;5056255;28;20787;-78
2022/05/18 03:42:44;;;;;;;4.10;3.43;;;18.60;99.90;;;;;;5056299;28;20616;-78
2022/05/18 03:45:10;;;;;;;5.60;3.77;;;18.60;99.90;;;;;;5056554;28;20233;-78
2022/05/18 03:47:36;;;;;;;4.07;2.73;;;18.60;99.90;;;;;;5056753;28;20461;-78
2022/05/18 03:50:02;;;;;;;5.07;3.50;;;18.60;99.90;;;;;;5056496;28;20822;-78
2022/05/18 03:52:27;;;;;;;4.87;3.70;;;18.70;99.90;;;;;;5055181;28;20642;-78
2022/05/18 03:54:53;;;;;;;5.23;3.43;;;18.70;99.90;;;;;;5056945;28;20465;-79
2022/05/18 03:57:19;;;;;;;5.03;3.13;;;18.60;99.90;;;;;;5055330;28;20223;-79
2022/05/18 03:59:45;;;;;;;3.47;3.00;;;18.60;99.90;;;;;;5038567;28;20176;-79
2022/05/18 04:02:10;;;;;;;3.70;2.83;;;18.60;99.90;;;;;;5034921;28;20180;-79
2022/05/18 04:04:36;;;;;;;4.90;3.27;;;18.50;99.90;;;;;;5035134;28;20196;-78
2022/05/18 04:07:03;;;;;;;4.20;3.07;;;18.40;99.90;;;;;;5018436;28;20236;-78
2022/05/18 04:09:29;;;;;;;5.37;3.67;;;18.30;99.90;;;;;;5034742;28;20415;-78
2022/05/18 04:11:55;;;;;;;4.50;3.03;;;18.30;99.90;;;;;;5034520;28;20443;-77
2022/05/18 04:14:21;;;;;;;8.80;3.50;;;18.20;99.90;;;;;;5034961;28;20180;-78
2022/05/18 04:16:49;;;;;;;5.20;3.73;;;18.20;99.90;;;;;;5035029;28;20488;-78
2022/05/18 04:19:15;;;;;;;6.90;3.50;;;18.10;99.90;;;;;;5034870;28;20605;-78
2022/05/18 04:21:41;;;;;;;6.97;3.40;;;18.20;99.90;;;;;;5034785;28;20411;-78
2022/05/18 04:24:07;;;;;;;4.30;2.90;;;18.30;99.90;;;;;;5035201;28;20863;-78
2022/05/18 04:26:33;;;;;;;4.07;3.57;;;18.30;99.90;;;;;;5034727;28;20485;-78
2022/05/18 04:28:59;;;;;;;4.00;2.80;;;18.30;99.90;;;;;;5034759;28;20202;-78
2022/05/18 04:31:25;;;;;;;5.40;3.50;;;18.40;99.90;;;;;;5034765;28;20677;-78
2022/05/18 04:33:50;;;;;;;7.20;3.60;;;18.40;99.90;;;;;;5034783;28;20572;-78
2022/05/18 04:36:16;;;;;;;3.70;2.60;;;18.50;99.90;;;;;;5034381;28;20262;-78
2022/05/18 04:38:42;;;;;;;4.77;3.10;;;18.60;99.90;;;;;;5034508;28;20180;-78
2022/05/18 04:41:08;;;;;;;5.20;3.47;;;18.70;99.90;;;;;;5033864;28;20600;-78
2022/05/18 04:43:34;;;;;;;4.57;3.30;;;18.80;99.90;;;;;;5034493;28;20176;-78
2022/05/18 04:46:01;;;;;;;5.37;3.40;;;18.90;99.90;;;;;;5034439;28;20609;-77
2022/05/18 04:48:30;;;;;;;6.63;3.57;;;19.00;99.90;;;;;;5034403;28;20447;-78
2022/05/18 04:50:56;;;;;;;6.20;3.40;;;19.10;99.90;;;;;;5034435;28;20457;-78
2022/05/18 04:53:22;;;;;;;5.43;3.10;;;19.20;99.90;;;;;;5034546;28;20922;-78
2022/05/18 04:55:49;;;;;;;5.50;3.80;;;19.20;99.90;;;;;;5034435;28;20208;-78
2022/05/18 04:58:15;;;;;;;5.47;3.63;;;19.20;99.90;;;;;;5033506;28;20192;-78
2022/05/18 05:00:43;;;;;;;7.50;3.63;;;19.30;99.90;;;;;;5034554;28;20419;-78
2022/05/18 05:03:08;;;;;;;4.70;3.43;;;19.40;99.90;;;;;;5035061;28;20414;-78
2022/05/18 05:05:34;;;;;;;3.80;2.90;;;19.50;99.90;;;;;;5034933;28;20419;-78
2022/05/18 05:08:00;;;;;;;6.13;3.30;;;19.50;99.90;;;;;;5055602;22;20208;-83
2022/05/18 05:10:26;;;;;;;4.70;2.73;;;19.60;99.90;;;;;;5045914;28;20168;-83
2022/05/18 05:12:51;;;;;;;5.20;3.43;;;19.70;99.90;;;;;;5031954;28;20175;-84
2022/05/18 05:15:17;;;;;;;4.30;3.23;;;19.80;99.90;;;;;;5030830;28;20237;-83
2022/05/18 05:17:43;;;;;;;4.60;2.90;;;19.90;99.90;;;;;;5030802;28;20663;-83
2022/05/18 05:20:10;;;;;;;4.00;2.90;;;19.90;99.90;;;;;;5031876;28;20179;-82
2022/05/18 05:22:35;;;;;;;4.00;3.10;;;20.00;99.90;;;;;;5031879;28;20172;-83
2022/05/18 05:25:01;;;;;;;4.73;3.53;;;20.10;99.90;;;;;;5031188;28;20934;-83
2022/05/18 05:27:26;;;;;;;6.03;3.27;;;20.20;99.90;;;;;;5022311;28;20193;-83
2022/05/18 05:29:52;;;;;;;5.70;2.80;;;20.30;99.90;;;;;;5012892;28;20209;-84
2022/05/18 05:32:18;;;;;;;5.00;3.00;;;20.30;99.90;;;;;;5013721;28;20204;-84
2022/05/18 05:34:44;;;;;;;4.83;2.83;;;20.40;99.90;;;;;;5011552;28;20211;-83
2022/05/18 05:37:10;;;;;;;4.63;3.20;;;20.50;99.90;;;;;;5011846;28;20227;-84
2022/05/18 05:39:35;;;;;;;4.80;3.50;;;20.60;99.90;;;;;;5011594;28;20444;-84
2022/05/18 05:42:01;;;;;;;4.20;3.03;;;20.60;99.90;;;;;;5012858;28;20165;-84
2022/05/18 05:44:27;;;;;;;7.87;3.00;;;20.70;99.90;;;;;;5011587;28;20259;-83
2022/05/18 05:46:53;;;;;;;5.00;3.60;;;20.70;99.90;;;;;;5011255;28;20424;-83
2022/05/18 05:49:19;;;;;;;4.30;2.80;;;20.80;99.90;;;;;;5011960;28;20568;-84
2022/05/18 05:51:45;;;;;;;4.87;2.90;;;20.90;99.90;;;;;;5012573;28;20506;-83
2022/05/18 05:54:10;;;;;;;4.70;3.27;;;21.00;99.90;;;;;;5014246;28;20514;-83
2022/05/18 05:56:36;;;;;;;4.30;2.63;;;21.10;99.90;;;;;;5014391;28;20213;-84
2022/05/18 05:59:01;;;;;;;7.03;2.97;;;21.10;99.90;;;;;;5014203;28;20197;-83
2022/05/18 06:01:27;;;;;;;4.73;3.17;;;21.30;99.90;;;;;;5014264;28;20268;-84
2022/05/18 06:03:52;;;;;;;4.70;2.77;;;21.30;99.90;;;;;;5014204;28;20667;-85
2022/05/18 06:06:19;;;;;;;4.80;3.00;;;21.40;99.90;;;;;;5014561;28;20181;-84
2022/05/18 06:08:45;;;;;;;3.70;3.00;;;21.50;99.90;;;;;;5013676;28;20216;-84
2022/05/18 06:11:11;;;;;;;4.80;3.10;;;21.60;99.90;;;;;;5014314;28;20438;-84
2022/05/18 06:13:38;;;;;;;5.93;3.00;;;21.70;99.90;;;;;;5014458;28;20428;-84
2022/05/18 06:16:05;;;;;;;4.37;3.03;;;21.80;99.90;;;;;;5014478;28;20474;-85
2022/05/18 06:18:31;;;;;;;4.00;2.70;;;21.90;99.90;;;;;;5014456;28;20877;-84
2022/05/18 06:20:58;;;;;;;6.03;3.13;;;22.00;99.90;;;;;;5014272;28;20428;-85
2022/05/18 06:23:24;;;;;;;3.87;3.00;;;22.00;99.90;;;;;;5014699;28;20247;-84
2022/05/18 06:25:49;;;;;;;4.30;2.60;;;22.10;99.90;;;;;;5014985;28;20432;-84
2022/05/18 06:28:15;;;;;;;4.23;2.70;;;22.10;99.90;;;;;;5014759;28;20197;-83
2022/05/18 06:30:41;;;;;;;4.27;2.93;;;22.10;99.90;;;;;;5014222;28;20218;-83
2022/05/18 06:33:07;;;;;;;3.93;2.93;;;22.20;99.90;;;;;;5015486;28;20204;-83
2022/05/18 06:35:33;;;;;;;6.80;3.50;;;22.20;99.90;;;;;;5014119;28;20232;-83
2022/05/18 06:37:59;;;;;;;4.37;3.10;;;22.20;99.90;;;;;;5013974;28;20219;-84
2022/05/18 06:43:09;;;;;;;5.50;3.50;;;22.50;99.90;;;;;;5015458;28;20241;-83
2022/05/18 06:45:34;;;;;;;4.30;3.40;;;22.50;99.90;;;;;;5013431;28;20483;-83
2022/05/18 06:48:00;;;;;;;5.30;3.17;;;22.60;99.90;;;;;;5018873;28;20262;-81
2022/05/18 06:50:26;;;;;;;4.07;2.77;;;22.70;99.90;;;;;;5033859;28;20177;-81
2022/05/18 06:52:52;;;;;;;5.10;3.10;;;22.80;99.90;;;;;;5027553;28;20452;-81
2022/05/18 06:55:17;;;;;;;4.33;2.50;;;22.80;99.90;;;;;;5026484;28;20208;-83
2022/05/18 06:57:43;;;;;;;5.97;3.37;;;23.00;99.90;;;;;;5014023;28;20283;-82
2022/05/18 07:00:09;;;;;;;3.67;2.87;;;22.90;99.90;;;;;;5016437;28;20256;-82
2022/05/18 07:02:35;;;;;;;4.53;2.60;;;23.00;99.90;;;;;;5014729;28;20656;-81
2022/05/18 07:05:01;;;;;;;4.40;2.80;;;23.10;99.90;;;;;;5019487;28;20450;-81
2022/05/18 07:07:27;;;;;;;4.30;2.50;;;23.10;99.90;;;;;;5013803;28;20193;-82
2022/05/18 07:09:53;;;;;;;3.83;2.80;;;23.20;99.90;;;;;;5014194;28;20513;-81
2022/05/18 07:12:18;;;;;;;4.40;2.83;;;23.30;99.90;;;;;;5014122;28;20276;-81
2022/05/18 07:14:44;;;;;;;3.87;2.80;;;23.30;99.90;;;;;;5015316;28;20291;-82
2022/05/18 07:17:09;;;;;;;4.43;2.80;;;23.40;99.90;;;;;;5014880;28;20224;-82
2022/05/18 07:19:35;;;;;;;4.30;2.77;;;23.60;99.90;;;;;;5017542;28;20279;-81
2022/05/18 07:22:02;;;;;;;4.10;2.60;;;23.70;99.90;;;;;;5014926;28;20188;-82
2022/05/18 07:24:27;;;;;;;8.73;3.30;;;23.70;99.90;;;;;;5016671;28;20621;-81
2022/05/18 07:26:53;;;;;;;4.97;2.70;;;23.70;99.90;;;;;;5015040;28;20502;-81
2022/05/18 07:29:19;;;;;;;5.97;3.17;;;23.80;99.90;;;;;;5015543;28;20200;-81
2022/05/18 07:34:29;;;;;;;4.07;2.80;;;24.00;99.90;;;;;;5015322;28;20172;-81
2022/05/18 07:36:55;;;;;;;3.30;2.40;;;24.10;99.90;;;;;;5013731;28;20420;-81
2022/05/18 07:39:20;;;;;;;3.97;2.80;;;24.20;99.90;;;;;;5017517;28;20475;-81
2022/05/18 07:41:46;;;;;;;4.13;2.83;;;24.30;99.90;;;;;;5016740;28;20574;-81
2022/05/18 07:44:12;;;;;;;3.60;2.90;;;24.40;99.90;;;;;;5014758;28;20180;-81
2022/05/18 07:46:39;;;;;;;3.77;2.40;;;24.50;99.90;;;;;;5028657;28;20452;-81
2022/05/18 07:49:05;;;;;;;4.67;2.67;;;24.60;99.90;;;;;;5034364;28;20462;-81
2022/05/18 07:51:32;;;;;;;4.07;2.60;;;24.60;99.90;;;;;;5035732;28;20445;-81
2022/05/18 07:53:58;;;;;;;3.97;2.80;;;24.70;99.90;;;;;;5034684;28;20426;-81
2022/05/18 07:56:24;;;;;;;3.53;2.50;;;24.90;99.90;;;;;;5030824;28;20522;-82
2022/05/18 07:58:49;;;;;;;4.03;2.60;;;25.70;99.90;;;;;;5047682;28;20550;-83
2022/05/18 08:01:15;;;;;;;7.03;2.57;;;26.50;99.90;;;;;;5039530;28;20241;-82
2022/05/18 08:03:41;;;;;;;3.43;2.37;;;27.10;99.90;;;;;;5056977;28;20180;-83
2022/05/18 08:06:07;;;;;;;4.23;2.70;;;27.80;99.90;;;;;;5042230;28;20865;-83
2022/05/18 08:08:32;;;;;;;3.10;2.20;;;28.50;99.90;;;;;;5042617;28;20220;-83
2022/05/18 08:16:34;;;;;;;4.60;2.73;;;31.10;99.90;;;;;;5027780;28;20566;-83
2022/05/18 08:19:01;;;;;;;3.63;2.33;;;32.00;99.90;;;;;;5042374;28;20447;-83
2022/05/18 08:21:26;;;;;;;4.00;2.27;;;32.50;96.60;;;;;;5040864;28;20434;-83
2022/05/18 08:23:53;;;;;;;3.90;2.40;;;33.20;95.50;;;;;;5041181;28;20438;-83
2022/05/18 08:26:19;;;;;;;3.47;2.77;;;34.10;91.70;;;;;;5039389;28;20251;-83
2022/05/18 08:28:44;;;;;;;5.40;2.43;;;34.80;88.30;;;;;;5040644;28;20465;-83
2022/05/18 08:31:12;;;;;;;3.17;2.40;;;35.20;79.00;;;;;;5041083;28;20241;-84
2022/05/18 08:33:38;;;;;;;4.37;2.47;;;35.50;74.90;;;;;;5040134;28;20211;-83
2022/05/18 08:36:06;;;;;;;5.53;2.70;;;36.00;71.90;;;;;;5039220;28;20458;-81
2022/05/18 08:38:33;;;;;;;4.00;2.53;;;36.60;68.10;;;;;;5040255;28;20278;-81
2022/05/18 08:41:20;;;;;;;3.10;2.27;;;36.90;63.80;;;;;;5041007;28;20434;-81
2022/05/18 08:43:50;;;;;;;3.27;2.50;;;37.20;59.90;;;;;;5038874;28;20435;-81
2022/05/18 08:46:29;;;;;;;3.37;2.30;;;37.50;58.40;;;;;;5039448;28;20409;-81
2022/05/18 08:49:13;;;;;;;3.33;2.43;;;37.60;57.20;;;;;;5036873;28;20451;-81
2022/05/18 08:52:07;;;;;;;3.43;2.43;;;37.60;55.40;;;;;;5039027;28;20922;-82
2022/05/18 08:55:26;;;;;;;4.10;2.50;;;38.50;55.80;;;;;;5037912;28;21075;-82
2022/05/18 08:57:54;;;;;;;4.60;2.30;;;38.70;52.20;;;;;;5038460;28;20430;-81
2022/05/18 09:00:31;;;;;;;3.50;2.93;;;38.90;51.80;;;;;;5037795;28;20973;-81
2022/05/18 09:03:24;;;;;;;4.17;2.40;;;39.60;49.80;;;;;;5037685;28;20467;-82
2022/05/18 09:06:16;;;;;;;4.73;2.40;;;40.10;49.50;;;;;;5037639;28;20460;-81
2022/05/18 09:10:12;;;;;;;4.10;2.33;;;40.90;48.80;;;;;;5037861;28;20548;-82
2022/05/18 09:11:35;;;;;;;2.77;2.33;;;41.50;46.00;;;;;;5036014;28;20457;-81
2022/05/18 09:14:00;;;;;;;3.50;2.50;;;42.00;43.70;;;;;;5026349;28;20428;-81
2022/05/18 09:16:41;;;;;;;4.63;2.13;;;42.50;44.60;;;;;;5036507;28;20204;-83
2022/05/18 09:19:25;;;;;;;4.27;2.10;;;42.70;42.50;;;;;;5035047;28;20195;-83
2022/05/18 09:22:21;;;;;;;3.30;2.50;;;41.80;42.90;;;;;;5032908;28;20414;-82
2022/05/18 09:25:40;;;;;;;4.73;2.37;;;41.60;42.10;;;;;;5032103;28;20942;-82
2022/05/18 09:28:37;;;;;;;3.50;2.40;;;41.80;42.40;;;;;;4958555;28;20918;-82
2022/05/18 09:31:37;;;;;;;3.17;2.47;;;42.30;41.50;;;;;;5046175;28;20419;-83
2022/05/18 09:34:20;;;;;;;4.00;2.30;;;42.80;38.80;;;;;;5037504;28;20201;-83
2022/05/18 09:37:17;;;;;;;3.33;2.27;;;43.20;39.00;;;;;;5036263;28;20207;-83
2022/05/18 09:39:53;;;;;;;3.27;1.93;;;43.50;38.50;;;;;;5038734;28;20188;-83
2022/05/18 09:42:24;;;;;;;3.40;2.30;;;43.30;38.60;;;;;;5036644;28;20226;-83
2022/05/18 09:45:07;;;;;;;3.30;2.15;;;43.90;36.70;;;;;;5038552;28;20267;-84
2022/05/18 09:47:57;;;;;;;4.03;1.75;;;44.20;35.60;;;;;;5035930;28;20190;-82
2022/05/18 09:50:23;;;;;;;3.10;2.03;;;43.30;36.00;;;;;;5034026;28;20202;-83
2022/05/18 09:52:50;;;;;;;3.93;2.30;;;43.20;37.80;;;;;;5035106;28;20643;-82
2022/05/18 09:55:20;;;;;;;4.73;2.17;;;43.10;36.90;;;;;;5034873;28;20215;-82
2022/05/18 09:58:03;;;;;;;3.70;2.50;;;43.00;37.50;;;;;;5033598;28;20168;-83
2022/05/18 10:00:34;;;;;;;8.93;2.37;;;42.90;36.90;;;;;;5033536;28;20621;-83
2022/05/18 10:08:53;;;;;;;3.10;2.40;;;42.90;35.90;;;;;;5034975;28;20233;-83
2022/05/18 10:11:29;;;;;;;3.72;2.42;;;43.60;37.20;;;;;;5034313;28;20184;-83
2022/05/18 10:14:05;;;;;;;3.33;1.75;;;44.00;34.20;;;;;;5034798;28;20167;-83
2022/05/18 10:16:41;;;;;;;2.97;2.20;;;44.20;34.60;;;;;;5033143;28;20230;-84
2022/05/18 10:19:21;;;;;;;2.90;2.15;;;43.60;35.40;;;;;;5034718;28;20198;-84
2022/05/18 10:21:58;;;;;;;2.70;2.10;;;43.00;34.40;;;;;;5034303;28;20206;-83
2022/05/18 10:24:50;;;;;;;4.63;2.20;;;42.20;34.30;;;;;;5033599;28;20182;-83
2022/05/18 10:27:16;;;;;;;3.00;2.10;;;41.30;37.10;;;;;;5033086;28;20176;-83
2022/05/18 10:29:43;;;;;;;2.80;2.20;;;41.00;35.40;;;;;;5034362;28;20426;-83
2022/05/18 10:32:21;;;;;;;3.27;2.50;;;41.60;36.00;;;;;;5033857;28;20262;-83
2022/05/18 10:34:50;;;;;;;2.77;2.03;;;42.50;36.30;;;;;;5033096;28;20457;-82
2022/05/18 10:37:35;;;;;;;2.80;1.87;;;42.90;34.40;;;;;;5031908;28;20434;-82
2022/05/18 10:40:20;;;;;;;4.90;2.20;;;43.30;34.30;;;;;;5033302;28;20192;-83
2022/05/18 10:42:51;;;;;;;3.35;1.98;;;43.20;33.90;;;;;;5034230;28;20221;-83
2022/05/18 10:45:26;;;;;;;3.53;2.13;;;42.20;34.50;;;;;;5032951;28;20238;-82
2022/05/18 10:47:53;;;;;;;3.80;2.27;;;40.50;35.00;;;;;;5032729;28;20233;-83
2022/05/18 10:50:24;;;;;;;3.27;2.20;;;39.20;36.30;;;;;;5032890;28;21060;-82
2022/05/18 10:52:58;;;;;;;3.80;2.10;;;38.30;37.30;;;;;;5032810;28;20455;-83
2022/05/18 10:55:26;;;;;;;3.63;2.10;;;37.20;37.70;;;;;;5032546;28;20454;-82
2022/05/18 10:58:00;;;;;;;3.23;2.20;;;36.60;37.10;;;;;;5032712;28;20675;-82
2022/05/18 11:00:47;;;;;;;2.90;2.10;;;35.90;38.00;;;;;;5032244;28;21048;-82
2022/05/18 11:03:43;;;;;;;3.23;2.00;;;35.30;39.70;;;;;;5032560;28;20796;-82
2022/05/18 11:06:31;;;;;;;2.80;1.60;;;34.80;41.10;;;;;;5028371;28;20763;-82
2022/05/18 11:09:00;;;;;;;3.47;2.07;;;34.50;38.80;;;;;;5054189;22;20454;-77
2022/05/18 11:12:08;;;;;;;2.97;2.17;;;34.10;40.50;;;;;;5051941;28;20466;-77
2022/05/18 11:14:49;;;;;;;5.20;2.87;;;33.70;41.70;;;;;;5025966;28;20414;-77
2022/05/18 11:17:45;;;;;;;2.70;1.90;;;33.60;41.40;;;;;;5055134;28;20444;-77
2022/05/18 11:20:35;;;;;;;3.13;2.20;;;33.40;40.20;;;;;;5054204;28;20415;-77
2022/05/18 11:23:03;;;;;;;2.83;1.90;;;32.90;39.90;;;;;;5056343;28;20428;-79
2022/05/18 11:26:01;;;;;;;2.83;1.87;;;32.60;41.60;;;;;;5056189;28;20488;-79
2022/05/18 11:28:39;;;;;;;4.20;2.33;;;32.50;42.70;;;;;;5055682;28;20442;-79
2022/05/18 11:31:15;;;;;;;2.63;1.87;;;32.40;41.70;;;;;;5055854;28;20768;-79
2022/05/18 11:33:58;;;;;;;5.03;2.00;;;32.30;43.10;;;;;;5055746;28;20571;-79
2022/05/18 11:36:56;;;;;;;4.47;2.60;;;32.20;43.40;;;;;;5055335;28;20462;-80
2022/05/18 11:39:51;;;;;;;3.00;1.80;;;32.10;42.90;;;;;;5052245;28;20422;-79
2022/05/18 11:42:49;;;;;;;3.07;1.90;;;32.00;43.50;;;;;;5042853;28;20437;-79
2022/05/18 11:45:15;;;;;;;2.97;1.70;;;32.00;42.90;;;;;;5049675;28;20425;-79
2022/05/18 11:48:01;;;;;;;2.80;2.20;;;31.90;43.50;;;;;;5054324;28;20506;-79
2022/05/18 11:50:46;;;;;;;2.90;1.70;;;31.90;43.30;;;;;;5053172;28;20196;-79
2022/05/18 11:53:50;;;;;;;5.20;2.27;;;31.90;44.60;;;;;;5053921;28;20425;-79
2022/05/18 11:56:50;;;;;;;3.10;1.87;;;32.00;43.40;;;;;;4972361;28;20473;-79
2022/05/18 11:59:54;;;;;;;3.87;2.90;;;32.10;43.80;;;;;;5054089;28;20414;-79
2022/05/18 12:02:49;;;;;;;3.00;1.83;;;32.10;43.00;;;;;;5053213;28;20422;-79
2022/05/18 12:05:26;;;;;;;3.43;2.17;;;32.10;44.90;;;;;;5053943;28;20437;-79
2022/05/18 12:08:30;;;;;;;5.63;1.90;;;32.20;44.40;;;;;;5054510;28;20434;-80
2022/05/18 12:11:11;;;;;;;4.23;2.00;;;32.20;44.90;;;;;;5054062;28;20444;-79
2022/05/18 12:13:37;;;;;;;3.07;2.10;;;32.10;44.60;;;;;;5053946;28;20479;-79
2022/05/18 12:16:03;;;;;;;3.43;1.90;;;32.10;44.50;;;;;;5053706;28;20552;-79
2022/05/18 12:18:44;;;;;;;3.10;2.40;;;32.20;44.00;;;;;;5053701;28;20200;-79
2022/05/18 12:21:40;;;;;;;3.50;2.20;;;32.40;45.30;;;;;;5053375;28;20182;-79
2022/05/18 12:24:09;;;;;;;3.47;1.93;;;32.80;45.20;;;;;;5053035;28;20421;-79
2022/05/18 12:26:40;;;;;;;3.40;2.30;;;33.40;43.90;;;;;;5053135;28;20434;-79
2022/05/18 12:29:07;;;;;;;3.30;2.10;;;33.40;42.80;;;;;;5053277;28;20418;-80
2022/05/18 12:31:36;;;;;;;4.40;2.33;;;33.40;43.20;;;;;;5054750;28;20460;-79
2022/05/18 12:34:14;;;;;;;3.17;2.30;;;33.30;42.80;;;;;;5055343;28;20432;-79
2022/05/18 12:36:50;;;;;;;3.03;2.03;;;33.30;42.50;;;;;;5054558;28;20881;-79
2022/05/18 12:39:50;;;;;;;4.73;2.20;;;33.20;43.70;;;;;;5055011;28;20426;-79
2022/05/18 12:42:22;;;;;;;3.57;2.60;;;33.20;43.50;;;;;;5048095;28;20414;-79
2022/05/18 12:44:57;;;;;;;6.40;2.30;;;33.20;42.10;;;;;;5054754;28;20419;-79
2022/05/18 12:47:39;;;;;;;3.67;2.03;;;33.00;42.50;;;;;;5053638;28;20453;-80
2022/05/18 12:50:15;;;;;;;3.30;2.10;;;32.90;44.40;;;;;;5054372;28;20483;-80
2022/05/18 12:52:51;;;;;;;3.57;2.23;;;32.80;45.20;;;;;;5053596;28;20499;-79
2022/05/18 12:55:36;;;;;;;3.53;2.80;;;32.90;46.20;;;;;;5054035;28;20493;-79
2022/05/18 12:58:24;;;;;;;3.40;2.17;;;32.90;45.40;;;;;;5053504;28;20516;-79
2022/05/18 13:01:04;;;;;;;4.20;2.10;;;32.80;44.20;;;;;;5054348;28;20419;-79
2022/05/18 13:03:43;;;;;;;4.33;2.43;;;32.70;45.10;;;;;;5057719;28;20480;-79
2022/05/18 13:06:35;;;;;;;2.93;2.10;;;32.70;43.40;;;;;;5057758;28;20794;-79
2022/05/18 13:09:04;;;;;;;3.00;2.10;;;32.80;44.40;;;;;;5057564;28;20426;-79
2022/05/18 13:11:42;;;;;;;3.27;2.20;;;32.70;43.10;;;;;;5057797;28;21023;-79
2022/05/18 13:14:17;;;;;;;4.70;2.50;;;32.70;45.50;;;;;;5057795;28;20836;-79
2022/05/18 13:16:49;;;;;;;6.00;2.20;;;32.60;43.70;;;;;;5057200;28;20603;-80
2022/05/18 13:19:18;;;;;;;3.67;2.27;;;32.60;44.20;;;;;;5056650;28;20413;-80
2022/05/18 13:21:53;;;;;;;3.73;2.67;;;32.50;44.60;;;;;;5056971;28;20425;-80
2022/05/18 13:24:24;;;;;;;4.00;2.40;;;32.50;43.90;;;;;;5057261;28;20425;-79
2022/05/18 13:26:51;;;;;;;2.83;2.30;;;32.60;45.00;;;;;;5056812;28;20480;-80
2022/05/18 13:29:24;;;;;;;3.37;2.17;;;32.70;43.70;;;;;;5056156;28;20422;-79
2022/05/18 13:32:01;;;;;;;3.60;2.13;;;32.80;46.30;;;;;;5052489;28;20483;-79
2022/05/18 13:34:49;;;;;;;4.30;2.20;;;33.00;46.40;;;;;;5055354;28;20495;-79
2022/05/18 13:37:15;;;;;;;5.13;2.40;;;33.50;46.80;;;;;;5055242;28;20503;-79